sensor_id;sensor_type;location;lat;lon;timestamp;pressure;altitude;pressure_sealevel;temperature;humidity
32197;BME280;18697;42.770;23.400;2024-03-08T00:01:47;95654.13;;;8.35;79.37
32197;BME280;18697;42.770;23.400;2024-03-08T00:04:13;95656.97;;;8.44;79.31
32197;BME280;18697;42.770;23.400;2024-03-08T00:06:38;95664.03;;;8.45;79.38
32197;BME280;18697;42.770;23.400;2024-03-08T00:09:04;95662.38;;;8.47;79.30
32197;BME280;18697;42.770;23.400;2024-03-08T00:11:33;95664.03;;;8.45;79.62
32197;BME280;18697;42.770;23.400;2024-03-08T00:13:58;95660.94;;;8.43;80.11
32197;BME280;18697;42.770;23.400;2024-03-08T00:16:24;95662.94;;;8.42;80.32
32197;BME280;18697;42.770;23.400;2024-03-08T00:18:49;95666.63;;;8.39;79.70
32197;BME280;18697;42.770;23.400;2024-03-08T00:21:15;95661.84;;;8.40;79.46
32197;BME280;18697;42.770;23.400;2024-03-08T00:23:40;95661.41;;;8.41;79.24
32197;BME280;18697;42.770;23.400;2024-03-08T00:26:06;95660.63;;;8.41;79.15
32197;BME280;18697;42.770;23.400;2024-03-08T00:28:32;95656.19;;;8.43;79.64
32197;BME280;18697;42.770;23.400;2024-03-08T00:30:59;95662.28;;;8.38;78.91
32197;BME280;18697;42.770;23.400;2024-03-08T00:33:25;95659.22;;;8.23;77.87
32197;BME280;18697;42.770;23.400;2024-03-08T00:35:50;95652.25;;;7.84;78.36
32197;BME280;18697;42.770;23.400;2024-03-08T00:38:16;95657.47;;;7.70;79.64
32197;BME280;18697;42.770;23.400;2024-03-08T00:40:44;95653.84;;;7.47;80.94
32197;BME280;18697;42.770;23.400;2024-03-08T00:43:09;95652.00;;;7.19;81.82
32197;BME280;18697;42.770;23.400;2024-03-08T00:45:34;95652.09;;;7.03;82.91
32197;BME280;18697;42.770;23.400;2024-03-08T00:48:00;95655.72;;;7.00;83.28
32197;BME280;18697;42.770;23.400;2024-03-08T00:50:25;95654.28;;;6.95;83.55
32197;BME280;18697;42.770;23.400;2024-03-08T00:52:50;95646.31;;;6.97;83.61
32197;BME280;18697;42.770;23.400;2024-03-08T00:55:16;95644.22;;;6.88;83.34
32197;BME280;18697;42.770;23.400;2024-03-08T00:57:42;95632.16;;;6.82;83.17
32197;BME280;18697;42.770;23.400;2024-03-08T01:00:08;95638.03;;;6.84;83.63
32197;BME280;18697;42.770;23.400;2024-03-08T01:02:35;95641.78;;;6.90;83.52
32197;BME280;18697;42.770;23.400;2024-03-08T01:05:01;95635.72;;;6.96;84.00
32197;BME280;18697;42.770;23.400;2024-03-08T01:07:27;95638.59;;;7.05;84.07
32197;BME280;18697;42.770;23.400;2024-03-08T01:09:52;95633.53;;;7.03;83.62
32197;BME280;18697;42.770;23.400;2024-03-08T01:12:17;95616.50;;;7.05;83.01
32197;BME280;18697;42.770;23.400;2024-03-08T01:14:43;95626.47;;;7.15;82.77
32197;BME280;18697;42.770;23.400;2024-03-08T01:17:08;95618.50;;;7.30;82.97
32197;BME280;18697;42.770;23.400;2024-03-08T01:19:34;95613.31;;;7.19;79.64
32197;BME280;18697;42.770;23.400;2024-03-08T01:22:00;95611.31;;;7.19;79.60
32197;BME280;18697;42.770;23.400;2024-03-08T01:24:25;95604.03;;;7.13;79.62
32197;BME280;18697;42.770;23.400;2024-03-08T01:26:51;95611.22;;;7.10;79.71
32197;BME280;18697;42.770;23.400;2024-03-08T01:29:16;95601.81;;;7.08;79.45
32197;BME280;18697;42.770;23.400;2024-03-08T01:31:42;95601.38;;;7.09;79.84
32197;BME280;18697;42.770;23.400;2024-03-08T01:34:07;95591.44;;;7.12;79.88
32197;BME280;18697;42.770;23.400;2024-03-08T01:36:33;95592.09;;;7.16;79.49
32197;BME280;18697;42.770;23.400;2024-03-08T01:38:58;95599.06;;;7.33;79.76
32197;BME280;18697;42.770;23.400;2024-03-08T01:41:23;95587.19;;;7.45;79.95
32197;BME280;18697;42.770;23.400;2024-03-08T01:43:49;95586.06;;;7.55;80.02
32197;BME280;18697;42.770;23.400;2024-03-08T01:46:19;95593.56;;;7.68;80.12
32197;BME280;18697;42.770;23.400;2024-03-08T01:48:47;95590.91;;;7.77;79.47
32197;BME280;18697;42.770;23.400;2024-03-08T01:51:12;95589.09;;;7.83;79.17
32197;BME280;18697;42.770;23.400;2024-03-08T01:53:40;95589.22;;;7.79;79.24
32197;BME280;18697;42.770;23.400;2024-03-08T01:56:07;95587.03;;;7.74;79.06
32197;BME280;18697;42.770;23.400;2024-03-08T01:58:34;95585.84;;;7.63;79.26
32197;BME280;18697;42.770;23.400;2024-03-08T02:01:01;95579.41;;;7.66;79.39
32197;BME280;18697;42.770;23.400;2024-03-08T02:03:29;95588.94;;;7.65;79.48
32197;BME280;18697;42.770;23.400;2024-03-08T02:05:56;95576.22;;;7.54;79.49
32197;BME280;18697;42.770;23.400;2024-03-08T02:08:24;95577.44;;;7.53;79.42
32197;BME280;18697;42.770;23.400;2024-03-08T02:10:50;95585.72;;;7.66;79.29
32197;BME280;18697;42.770;23.400;2024-03-08T02:13:16;95584.38;;;7.71;78.80
32197;BME280;18697;42.770;23.400;2024-03-08T02:15:55;95580.06;;;7.70;78.29
32197;BME280;18697;42.770;23.400;2024-03-08T02:18:21;95583.25;;;7.81;79.13
32197;BME280;18697;42.770;23.400;2024-03-08T02:20:49;95587.88;;;7.84;79.21
32197;BME280;18697;42.770;23.400;2024-03-08T02:23:14;95596.19;;;7.84;78.96
32197;BME280;18697;42.770;23.400;2024-03-08T02:25:40;95597.19;;;7.77;78.15
32197;BME280;18697;42.770;23.400;2024-03-08T02:28:09;95593.22;;;7.78;78.42
32197;BME280;18697;42.770;23.400;2024-03-08T02:30:35;95595.19;;;7.78;78.20
32197;BME280;18697;42.770;23.400;2024-03-08T02:33:01;95601.06;;;7.80;78.81
32197;BME280;18697;42.770;23.400;2024-03-08T02:35:26;95602.28;;;7.79;78.83
32197;BME280;18697;42.770;23.400;2024-03-08T02:37:51;95603.63;;;7.74;78.49
32197;BME280;18697;42.770;23.400;2024-03-08T02:40:17;95598.53;;;7.73;78.40
32197;BME280;18697;42.770;23.400;2024-03-08T02:42:42;95607.03;;;7.78;77.96
32197;BME280;18697;42.770;23.400;2024-03-08T02:45:08;95602.19;;;7.70;76.84
32197;BME280;18697;42.770;23.400;2024-03-08T02:47:35;95618.78;;;7.70;76.43
32197;BME280;18697;42.770;23.400;2024-03-08T02:50:01;95610.06;;;7.58;75.89
32197;BME280;18697;42.770;23.400;2024-03-08T02:52:26;95620.78;;;7.56;76.39
32197;BME280;18697;42.770;23.400;2024-03-08T02:54:52;95620.44;;;7.54;76.23
32197;BME280;18697;42.770;23.400;2024-03-08T02:57:17;95610.06;;;7.58;76.34
32197;BME280;18697;42.770;23.400;2024-03-08T02:59:43;95611.16;;;7.61;76.51
32197;BME280;18697;42.770;23.400;2024-03-08T03:02:09;95611.25;;;7.70;76.15
32197;BME280;18697;42.770;23.400;2024-03-08T03:04:35;95611.81;;;7.65;76.24
32197;BME280;18697;42.770;23.400;2024-03-08T03:07:01;95607.19;;;7.62;76.36
32197;BME280;18697;42.770;23.400;2024-03-08T03:09:26;95600.66;;;7.56;75.59
32197;BME280;18697;42.770;23.400;2024-03-08T03:11:56;95610.41;;;7.48;75.39
32197;BME280;18697;42.770;23.400;2024-03-08T03:14:21;95621.94;;;7.34;76.46
32197;BME280;18697;42.770;23.400;2024-03-08T03:16:47;95612.88;;;7.33;76.93
32197;BME280;18697;42.770;23.400;2024-03-08T03:19:12;95617.50;;;7.36;77.15
32197;BME280;18697;42.770;23.400;2024-03-08T03:21:38;95610.22;;;7.30;77.34
32197;BME280;18697;42.770;23.400;2024-03-08T03:24:04;95618.19;;;7.28;77.66
32197;BME280;18697;42.770;23.400;2024-03-08T03:26:35;95618.41;;;7.33;78.02
32197;BME280;18697;42.770;23.400;2024-03-08T03:29:02;95624.25;;;7.35;77.92
32197;BME280;18697;42.770;23.400;2024-03-08T03:31:28;95631.66;;;7.38;77.02
32197;BME280;18697;42.770;23.400;2024-03-08T03:33:54;95627.25;;;7.28;76.16
32197;BME280;18697;42.770;23.400;2024-03-08T03:36:19;95636.84;;;7.23;76.14
32197;BME280;18697;42.770;23.400;2024-03-08T03:38:45;95630.19;;;6.96;76.40
32197;BME280;18697;42.770;23.400;2024-03-08T03:41:10;95637.19;;;6.46;76.83
32197;BME280;18697;42.770;23.400;2024-03-08T03:43:37;95620.78;;;6.26;77.49
32197;BME280;18697;42.770;23.400;2024-03-08T03:46:06;95640.31;;;6.03;78.71
32197;BME280;18697;42.770;23.400;2024-03-08T03:48:32;95633.44;;;5.78;80.07
32197;BME280;18697;42.770;23.400;2024-03-08T03:50:57;95637.69;;;5.50;80.89
32197;BME280;18697;42.770;23.400;2024-03-08T03:53:23;95642.84;;;5.48;81.43
32197;BME280;18697;42.770;23.400;2024-03-08T03:55:51;95642.00;;;5.51;81.86
32197;BME280;18697;42.770;23.400;2024-03-08T03:58:16;95648.19;;;5.55;81.69
32197;BME280;18697;42.770;23.400;2024-03-08T04:00:47;95652.56;;;5.53;81.56
32197;BME280;18697;42.770;23.400;2024-03-08T04:03:13;95653.97;;;5.61;81.94
32197;BME280;18697;42.770;23.400;2024-03-08T04:05:38;95654.13;;;5.70;81.75
32197;BME280;18697;42.770;23.400;2024-03-08T04:08:04;95661.63;;;5.70;81.80
32197;BME280;18697;42.770;23.400;2024-03-08T04:10:30;95672.47;;;5.77;82.54
32197;BME280;18697;42.770;23.400;2024-03-08T04:12:55;95665.91;;;5.87;83.03
32197;BME280;18697;42.770;23.400;2024-03-08T04:15:22;95669.00;;;6.05;82.68
32197;BME280;18697;42.770;23.400;2024-03-08T04:17:48;95669.59;;;6.13;82.20
32197;BME280;18697;42.770;23.400;2024-03-08T04:20:13;95665.72;;;6.10;80.77
32197;BME280;18697;42.770;23.400;2024-03-08T04:22:39;95672.88;;;6.08;80.06
32197;BME280;18697;42.770;23.400;2024-03-08T04:25:06;95675.03;;;6.00;80.20
32197;BME280;18697;42.770;23.400;2024-03-08T04:27:32;95688.13;;;5.96;80.21
32197;BME280;18697;42.770;23.400;2024-03-08T04:29:58;95690.81;;;6.00;81.57
32197;BME280;18697;42.770;23.400;2024-03-08T04:32:24;95685.09;;;6.07;81.32
32197;BME280;18697;42.770;23.400;2024-03-08T04:34:50;95695.28;;;6.10;80.63
32197;BME280;18697;42.770;23.400;2024-03-08T04:37:15;95696.56;;;6.05;80.14
32197;BME280;18697;42.770;23.400;2024-03-08T04:39:43;95691.84;;;6.06;81.06
32197;BME280;18697;42.770;23.400;2024-03-08T04:42:09;95688.81;;;6.00;80.80
32197;BME280;18697;42.770;23.400;2024-03-08T04:44:38;95699.50;;;5.98;81.03
32197;BME280;18697;42.770;23.400;2024-03-08T04:47:04;95691.94;;;5.86;81.40
32197;BME280;18697;42.770;23.400;2024-03-08T04:49:33;95699.09;;;5.83;81.19
32197;BME280;18697;42.770;23.400;2024-03-08T04:52:04;95700.63;;;5.68;80.98
32197;BME280;18697;42.770;23.400;2024-03-08T04:54:30;95702.06;;;5.40;81.62
32197;BME280;18697;42.770;23.400;2024-03-08T04:56:56;95706.16;;;5.16;82.63
32197;BME280;18697;42.770;23.400;2024-03-08T04:59:21;95712.75;;;5.02;83.88
32197;BME280;18697;42.770;23.400;2024-03-08T05:01:47;95709.72;;;4.97;84.69
32197;BME280;18697;42.770;23.400;2024-03-08T05:04:13;95709.81;;;4.93;85.86
32197;BME280;18697;42.770;23.400;2024-03-08T05:06:38;95709.81;;;4.93;86.21
32197;BME280;18697;42.770;23.400;2024-03-08T05:09:04;95714.81;;;4.78;86.46
32197;BME280;18697;42.770;23.400;2024-03-08T05:11:44;95710.66;;;4.70;87.08
32197;BME280;18697;42.770;23.400;2024-03-08T05:14:10;95722.38;;;4.74;87.79
32197;BME280;18697;42.770;23.400;2024-03-08T05:16:36;95722.50;;;4.67;87.65
32197;BME280;18697;42.770;23.400;2024-03-08T05:19:02;95730.06;;;4.63;87.51
32197;BME280;18697;42.770;23.400;2024-03-08T05:21:28;95718.69;;;4.61;88.12
32197;BME280;18697;42.770;23.400;2024-03-08T05:23:54;95726.94;;;4.61;87.95
32197;BME280;18697;42.770;23.400;2024-03-08T05:26:20;95730.97;;;4.56;88.65
32197;BME280;18697;42.770;23.400;2024-03-08T05:28:45;95737.66;;;4.55;88.86
32197;BME280;18697;42.770;23.400;2024-03-08T05:31:22;95745.78;;;4.62;88.78
32197;BME280;18697;42.770;23.400;2024-03-08T05:33:48;95750.16;;;4.60;88.70
32197;BME280;18697;42.770;23.400;2024-03-08T05:36:14;95748.19;;;4.60;88.67
32197;BME280;18697;42.770;23.400;2024-03-08T05:38:42;95753.13;;;4.69;88.89
32197;BME280;18697;42.770;23.400;2024-03-08T05:41:09;95758.34;;;4.83;89.21
32197;BME280;18697;42.770;23.400;2024-03-08T05:43:34;95761.31;;;4.92;88.32
32197;BME280;18697;42.770;23.400;2024-03-08T05:45:59;95759.56;;;5.02;87.85
32197;BME280;18697;42.770;23.400;2024-03-08T05:48:25;95770.78;;;5.11;88.04
32197;BME280;18697;42.770;23.400;2024-03-08T05:50:50;95769.94;;;5.31;87.53
32197;BME280;18697;42.770;23.400;2024-03-08T05:53:16;95767.66;;;5.45;87.09
32197;BME280;18697;42.770;23.400;2024-03-08T05:55:41;95779.94;;;5.60;86.53
32197;BME280;18697;42.770;23.400;2024-03-08T05:58:06;95768.28;;;5.53;84.67
32197;BME280;18697;42.770;23.400;2024-03-08T06:00:33;95782.19;;;5.66;84.17
32197;BME280;18697;42.770;23.400;2024-03-08T06:02:59;95793.31;;;5.78;85.17
32197;BME280;18697;42.770;23.400;2024-03-08T06:05:24;95789.72;;;5.98;84.47
32197;BME280;18697;42.770;23.400;2024-03-08T06:07:50;95778.09;;;6.06;83.45
32197;BME280;18697;42.770;23.400;2024-03-08T06:10:15;95778.59;;;6.17;83.27
32197;BME280;18697;42.770;23.400;2024-03-08T06:12:42;95780.59;;;6.33;82.75
32197;BME280;18697;42.770;23.400;2024-03-08T06:15:08;95789.13;;;6.39;82.47
32197;BME280;18697;42.770;23.400;2024-03-08T06:17:37;95786.09;;;6.49;81.07
32197;BME280;18697;42.770;23.400;2024-03-08T06:20:03;95789.78;;;6.43;79.79
32197;BME280;18697;42.770;23.400;2024-03-08T06:22:37;95795.38;;;6.55;80.29
32197;BME280;18697;42.770;23.400;2024-03-08T06:25:06;95792.78;;;6.65;80.00
32197;BME280;18697;42.770;23.400;2024-03-08T06:27:32;95787.69;;;6.63;79.05
32197;BME280;18697;42.770;23.400;2024-03-08T06:29:59;95796.84;;;6.60;77.89
32197;BME280;18697;42.770;23.400;2024-03-08T06:32:24;95793.91;;;6.67;78.14
32197;BME280;18697;42.770;23.400;2024-03-08T06:34:50;95798.53;;;6.70;78.83
32197;BME280;18697;42.770;23.400;2024-03-08T06:37:16;95790.59;;;6.72;77.92
32197;BME280;18697;42.770;23.400;2024-03-08T06:39:49;95806.38;;;6.72;78.73
32197;BME280;18697;42.770;23.400;2024-03-08T06:42:16;95802.31;;;6.76;79.33
32197;BME280;18697;42.770;23.400;2024-03-08T06:44:42;95807.84;;;6.76;79.58
32197;BME280;18697;42.770;23.400;2024-03-08T06:47:14;95808.69;;;6.73;79.43
32197;BME280;18697;42.770;23.400;2024-03-08T06:49:41;95807.50;;;6.74;79.21
32197;BME280;18697;42.770;23.400;2024-03-08T06:52:07;95812.56;;;6.76;78.65
32197;BME280;18697;42.770;23.400;2024-03-08T06:54:34;95811.66;;;6.66;78.90
32197;BME280;18697;42.770;23.400;2024-03-08T06:57:04;95813.41;;;6.60;79.13
32197;BME280;18697;42.770;23.400;2024-03-08T06:59:33;95818.41;;;6.65;79.21
32197;BME280;18697;42.770;23.400;2024-03-08T07:02:01;95819.06;;;6.69;79.49
32197;BME280;18697;42.770;23.400;2024-03-08T07:04:26;95830.00;;;6.73;79.50
32197;BME280;18697;42.770;23.400;2024-03-08T07:06:55;95824.78;;;6.62;79.67
32197;BME280;18697;42.770;23.400;2024-03-08T07:09:20;95830.66;;;6.64;79.59
32197;BME280;18697;42.770;23.400;2024-03-08T07:11:45;95837.75;;;6.78;79.94
32197;BME280;18697;42.770;23.400;2024-03-08T07:14:12;95828.81;;;6.74;77.72
32197;BME280;18697;42.770;23.400;2024-03-08T07:16:37;95837.50;;;6.88;78.69
32197;BME280;18697;42.770;23.400;2024-03-08T07:19:04;95835.00;;;6.78;76.74
32197;BME280;18697;42.770;23.400;2024-03-08T07:21:30;95834.66;;;6.76;77.52
32197;BME280;18697;42.770;23.400;2024-03-08T07:23:55;95841.91;;;6.70;77.44
32197;BME280;18697;42.770;23.400;2024-03-08T07:26:26;95838.19;;;6.76;77.86
32197;BME280;18697;42.770;23.400;2024-03-08T07:28:52;95835.19;;;6.71;78.16
32197;BME280;18697;42.770;23.400;2024-03-08T07:31:20;95840.28;;;6.72;78.75
32197;BME280;18697;42.770;23.400;2024-03-08T07:33:45;95844.25;;;6.71;78.04
32197;BME280;18697;42.770;23.400;2024-03-08T07:36:11;95841.03;;;6.73;78.02
32197;BME280;18697;42.770;23.400;2024-03-08T07:38:36;95847.16;;;6.80;77.82
32197;BME280;18697;42.770;23.400;2024-03-08T07:41:01;95837.41;;;6.76;78.14
32197;BME280;18697;42.770;23.400;2024-03-08T07:43:27;95837.81;;;6.90;77.24
32197;BME280;18697;42.770;23.400;2024-03-08T07:45:52;95844.19;;;7.04;77.08
32197;BME280;18697;42.770;23.400;2024-03-08T07:48:20;95838.56;;;7.07;76.87
32197;BME280;18697;42.770;23.400;2024-03-08T07:50:46;95843.91;;;7.14;76.97
32197;BME280;18697;42.770;23.400;2024-03-08T07:53:11;95844.38;;;7.25;76.71
32197;BME280;18697;42.770;23.400;2024-03-08T07:55:37;95839.38;;;7.20;73.97
32197;BME280;18697;42.770;23.400;2024-03-08T07:58:03;95842.34;;;7.13;75.62
32197;BME280;18697;42.770;23.400;2024-03-08T08:00:29;95836.09;;;7.25;76.91
32197;BME280;18697;42.770;23.400;2024-03-08T08:02:56;95825.47;;;7.24;75.29
32197;BME280;18697;42.770;23.400;2024-03-08T08:05:21;95827.28;;;7.43;75.89
32197;BME280;18697;42.770;23.400;2024-03-08T08:07:47;95832.94;;;7.52;76.69
32197;BME280;18697;42.770;23.400;2024-03-08T08:10:13;95824.81;;;7.74;76.24
32197;BME280;18697;42.770;23.400;2024-03-08T08:12:51;95823.00;;;7.55;72.67
32197;BME280;18697;42.770;23.400;2024-03-08T08:15:19;95827.53;;;7.62;73.92
32197;BME280;18697;42.770;23.400;2024-03-08T08:17:45;95825.88;;;7.64;72.65
32197;BME280;18697;42.770;23.400;2024-03-08T08:20:11;95826.53;;;7.55;72.69
32197;BME280;18697;42.770;23.400;2024-03-08T08:22:41;95825.44;;;7.66;72.38
32197;BME280;18697;42.770;23.400;2024-03-08T08:25:08;95809.88;;;7.84;74.27
32197;BME280;18697;42.770;23.400;2024-03-08T08:27:33;95814.16;;;8.23;73.26
32197;BME280;18697;42.770;23.400;2024-03-08T08:29:59;95813.75;;;8.85;73.05
32197;BME280;18697;42.770;23.400;2024-03-08T08:32:26;95818.16;;;9.17;72.69
32197;BME280;18697;42.770;23.400;2024-03-08T08:34:51;95809.00;;;9.29;67.59
32197;BME280;18697;42.770;23.400;2024-03-08T08:37:17;95822.53;;;9.27;68.28
32197;BME280;18697;42.770;23.400;2024-03-08T08:39:42;95825.56;;;9.42;71.33
32197;BME280;18697;42.770;23.400;2024-03-08T08:42:07;95829.38;;;9.57;70.37
32197;BME280;18697;42.770;23.400;2024-03-08T08:44:35;95819.41;;;9.69;66.52
32197;BME280;18697;42.770;23.400;2024-03-08T08:47:00;95832.38;;;9.72;69.63
32197;BME280;18697;42.770;23.400;2024-03-08T08:49:26;95821.38;;;9.90;69.43
32197;BME280;18697;42.770;23.400;2024-03-08T08:51:52;95821.91;;;10.07;66.79
32197;BME280;18697;42.770;23.400;2024-03-08T08:54:18;95818.34;;;10.28;67.15
32197;BME280;18697;42.770;23.400;2024-03-08T08:56:44;95810.03;;;9.75;64.78
32197;BME280;18697;42.770;23.400;2024-03-08T08:59:10;95814.72;;;9.87;64.63
32197;BME280;18697;42.770;23.400;2024-03-08T09:01:39;95815.78;;;9.81;64.07
32197;BME280;18697;42.770;23.400;2024-03-08T09:04:04;95815.59;;;9.44;64.59
32197;BME280;18697;42.770;23.400;2024-03-08T09:06:30;95818.28;;;9.35;65.41
32197;BME280;18697;42.770;23.400;2024-03-08T09:08:55;95807.81;;;8.96;66.83
32197;BME280;18697;42.770;23.400;2024-03-08T09:11:20;95814.34;;;9.02;67.10
32197;BME280;18697;42.770;23.400;2024-03-08T09:13:46;95810.84;;;8.88;67.45
32197;BME280;18697;42.770;23.400;2024-03-08T09:16:12;95805.47;;;8.72;66.82
32197;BME280;18697;42.770;23.400;2024-03-08T09:18:37;95804.16;;;8.64;68.56
32197;BME280;18697;42.770;23.400;2024-03-08T09:21:03;95801.63;;;8.92;70.83
32197;BME280;18697;42.770;23.400;2024-03-08T09:23:30;95795.13;;;8.85;67.04
32197;BME280;18697;42.770;23.400;2024-03-08T09:25:58;95794.38;;;9.29;68.54
32197;BME280;18697;42.770;23.400;2024-03-08T09:28:24;95802.16;;;9.21;66.07
32197;BME280;18697;42.770;23.400;2024-03-08T09:30:50;95797.72;;;9.45;65.75
32197;BME280;18697;42.770;23.400;2024-03-08T09:33:15;95806.13;;;9.95;68.73
32197;BME280;18697;42.770;23.400;2024-03-08T09:35:45;95804.84;;;10.17;67.02
32197;BME280;18697;42.770;23.400;2024-03-08T09:38:12;95805.56;;;10.40;66.27
32197;BME280;18697;42.770;23.400;2024-03-08T09:40:41;95814.13;;;10.73;64.68
32197;BME280;18697;42.770;23.400;2024-03-08T09:43:07;95807.00;;;10.72;63.36
32197;BME280;18697;42.770;23.400;2024-03-08T09:45:36;95811.06;;;10.89;64.04
32197;BME280;18697;42.770;23.400;2024-03-08T09:48:02;95809.50;;;11.25;63.39
32197;BME280;18697;42.770;23.400;2024-03-08T09:50:27;95810.56;;;11.36;60.14
32197;BME280;18697;42.770;23.400;2024-03-08T09:52:55;95811.34;;;11.55;59.41
32197;BME280;18697;42.770;23.400;2024-03-08T09:55:22;95811.16;;;11.77;59.94
32197;BME280;18697;42.770;23.400;2024-03-08T09:57:48;95812.38;;;11.85;59.13
32197;BME280;18697;42.770;23.400;2024-03-08T10:00:33;95815.78;;;11.71;56.54
32197;BME280;18697;42.770;23.400;2024-03-08T10:03:02;95812.44;;;11.39;56.18
32197;BME280;18697;42.770;23.400;2024-03-08T10:05:28;95798.84;;;11.32;59.87
32197;BME280;18697;42.770;23.400;2024-03-08T10:07:55;95808.41;;;11.31;57.64
32197;BME280;18697;42.770;23.400;2024-03-08T10:10:20;95799.47;;;11.18;60.71
32197;BME280;18697;42.770;23.400;2024-03-08T10:12:48;95806.56;;;11.37;58.98
32197;BME280;18697;42.770;23.400;2024-03-08T10:15:15;95801.91;;;11.52;60.28
32197;BME280;18697;42.770;23.400;2024-03-08T10:17:42;95811.00;;;11.62;56.45
32197;BME280;18697;42.770;23.400;2024-03-08T10:20:18;95809.31;;;11.56;57.90
32197;BME280;18697;42.770;23.400;2024-03-08T10:22:44;95807.47;;;11.43;59.08
32197;BME280;18697;42.770;23.400;2024-03-08T10:25:13;95803.13;;;11.61;62.59
32197;BME280;18697;42.770;23.400;2024-03-08T10:27:41;95803.91;;;11.79;60.86
32197;BME280;18697;42.770;23.400;2024-03-08T10:30:15;95799.66;;;11.93;59.67
32197;BME280;18697;42.770;23.400;2024-03-08T10:32:44;95794.06;;;12.02;58.88
32197;BME280;18697;42.770;23.400;2024-03-08T10:35:10;95800.94;;;11.74;58.99
32197;BME280;18697;42.770;23.400;2024-03-08T10:37:44;95790.13;;;11.76;59.84
32197;BME280;18697;42.770;23.400;2024-03-08T10:40:16;95799.97;;;11.95;58.84
32197;BME280;18697;42.770;23.400;2024-03-08T10:42:59;95797.56;;;11.79;55.22
32197;BME280;18697;42.770;23.400;2024-03-08T10:45:41;95782.13;;;11.50;59.57
32197;BME280;18697;42.770;23.400;2024-03-08T10:50:53;95786.34;;;11.18;58.33
32197;BME280;18697;42.770;23.400;2024-03-08T10:53:20;95791.13;;;11.27;56.22
32197;BME280;18697;42.770;23.400;2024-03-08T10:55:49;95790.50;;;11.41;55.79
32197;BME280;18697;42.770;23.400;2024-03-08T10:58:19;95787.25;;;11.43;54.41
32197;BME280;18697;42.770;23.400;2024-03-08T11:00:46;95773.88;;;11.74;57.06
32197;BME280;18697;42.770;23.400;2024-03-08T11:06:06;95773.50;;;10.66;56.53
32197;BME280;18697;42.770;23.400;2024-03-08T11:08:33;95775.84;;;10.77;56.14
32197;BME280;18697;42.770;23.400;2024-03-08T11:10:59;95776.59;;;10.68;54.03
32197;BME280;18697;42.770;23.400;2024-03-08T11:13:38;95763.34;;;11.09;58.94
32197;BME280;18697;42.770;23.400;2024-03-08T11:16:39;95766.06;;;11.45;56.47
32197;BME280;18697;42.770;23.400;2024-03-08T11:21:36;95761.50;;;10.97;57.42
32197;BME280;18697;42.770;23.400;2024-03-08T11:24:12;95767.50;;;10.77;57.48
32197;BME280;18697;42.770;23.400;2024-03-08T11:26:42;95752.84;;;10.76;58.53
32197;BME280;18697;42.770;23.400;2024-03-08T11:32:08;95756.81;;;10.30;58.03
32197;BME280;18697;42.770;23.400;2024-03-08T11:34:42;95752.66;;;10.43;58.90
32197;BME280;18697;42.770;23.400;2024-03-08T11:37:19;95747.28;;;10.40;59.22
32197;BME280;18697;42.770;23.400;2024-03-08T11:39:55;95743.88;;;10.54;60.33
32197;BME280;18697;42.770;23.400;2024-03-08T11:42:24;95752.06;;;10.39;57.15
32197;BME280;18697;42.770;23.400;2024-03-08T11:44:51;95754.34;;;10.50;59.56
32197;BME280;18697;42.770;23.400;2024-03-08T11:47:17;95746.50;;;10.39;59.21
32197;BME280;18697;42.770;23.400;2024-03-08T11:49:43;95744.19;;;10.56;57.99
32197;BME280;18697;42.770;23.400;2024-03-08T11:52:14;95749.72;;;10.47;57.61
32197;BME280;18697;42.770;23.400;2024-03-08T11:54:48;95743.53;;;10.43;58.39
32197;BME280;18697;42.770;23.400;2024-03-08T11:57:18;95744.94;;;10.38;57.33
32197;BME280;18697;42.770;23.400;2024-03-08T11:59:50;95738.47;;;10.32;59.72
32197;BME280;18697;42.770;23.400;2024-03-08T12:02:15;95747.75;;;10.07;58.93
32197;BME280;18697;42.770;23.400;2024-03-08T12:04:40;95743.38;;;10.28;59.19
32197;BME280;18697;42.770;23.400;2024-03-08T12:07:09;95745.69;;;10.20;58.75
32197;BME280;18697;42.770;23.400;2024-03-08T12:09:37;95744.91;;;10.20;58.63
32197;BME280;18697;42.770;23.400;2024-03-08T12:12:03;95748.34;;;9.93;59.29
32197;BME280;18697;42.770;23.400;2024-03-08T12:14:33;95746.25;;;9.75;60.35
32197;BME280;18697;42.770;23.400;2024-03-08T12:16:59;95745.69;;;9.49;60.75
32197;BME280;18697;42.770;23.400;2024-03-08T12:19:27;95753.97;;;9.18;61.01
32197;BME280;18697;42.770;23.400;2024-03-08T12:21:54;95735.06;;;9.26;62.43
32197;BME280;18697;42.770;23.400;2024-03-08T12:24:19;95746.69;;;9.65;60.14
32197;BME280;18697;42.770;23.400;2024-03-08T12:26:46;95746.22;;;10.06;61.65
32197;BME280;18697;42.770;23.400;2024-03-08T12:29:22;95747.09;;;9.94;59.60
32197;BME280;18697;42.770;23.400;2024-03-08T12:31:56;95740.84;;;9.72;59.77
32197;BME280;18697;42.770;23.400;2024-03-08T12:34:24;95733.88;;;9.67;61.32
32197;BME280;18697;42.770;23.400;2024-03-08T12:36:50;95736.25;;;9.78;60.92
32197;BME280;18697;42.770;23.400;2024-03-08T12:39:21;95737.25;;;10.02;60.26
32197;BME280;18697;42.770;23.400;2024-03-08T12:41:52;95728.88;;;9.84;57.90
32197;BME280;18697;42.770;23.400;2024-03-08T12:44:18;95734.84;;;10.13;59.15
32197;BME280;18697;42.770;23.400;2024-03-08T12:46:47;95730.63;;;10.00;57.08
32197;BME280;18697;42.770;23.400;2024-03-08T12:49:13;95718.25;;;10.32;58.83
32197;BME280;18697;42.770;23.400;2024-03-08T12:51:45;95719.38;;;10.03;57.26
32197;BME280;18697;42.770;23.400;2024-03-08T12:54:10;95714.81;;;9.78;58.01
32197;BME280;18697;42.770;23.400;2024-03-08T12:56:36;95716.66;;;9.72;57.55
32197;BME280;18697;42.770;23.400;2024-03-08T12:59:04;95718.88;;;9.86;58.17
32197;BME280;18697;42.770;23.400;2024-03-08T13:01:30;95709.50;;;10.02;60.00
32197;BME280;18697;42.770;23.400;2024-03-08T13:04:00;95712.38;;;10.20;58.42
32197;BME280;18697;42.770;23.400;2024-03-08T13:06:29;95719.00;;;10.41;58.36
32197;BME280;18697;42.770;23.400;2024-03-08T13:08:56;95719.47;;;10.22;56.86